Sarakhs Airport

Airport
ICAO code: 
OIMC
IATA Code: 
CKT
Summary
ICAO Region: 
MID
Territory: 
Location: 
Sarakhs, Razavi Khorasan Province
Serving: 
Sarakhs
Elevation: 
945 ft
Coordinates: 
Aerial View: 
36° 29' 17.002" N, 61° 4' 12" E
Metar
Observation
OIMC 261950Z AUTO 13004KT //// // ////// 34/09 Q1001
Station
Sarakhs
Date/Time
2022-06-26 19:50:00
Wind direction
130°
Wind speed
04 kts
Lowest cloud amount
n/a
Temperature
34°C
Dew point
9°C
Humidity
21%
QNH
1001 hPa
Weather condition
n/a

Airport 8km southwest of the city of Sarakhs, Iran, close to the border with Turkmenistan.

Climatology

Cold Semi-arid climate (Köppen climate classification Bsk).

Runways

Designator Length Width Surface Rops
14/32 3986 45 ASP No/No
Airport map: 
Aerial View: 

SKYbrary Partners:

Safety knowledge contributed by: